Time;durP1;ratioP1;P1;durP2;ratioP2;P2;SDS_P1;SDS_P2;PMS_P1;PMS_P2;Temp;Humidity;BMP_temperature;BMP_pressure;BME280_temperature;BME280_humidity;BME280_pressure;Samples;Min_cycle;Max_cycle;Signal;HPM_P1;HPM_P2
2021/04/10 00:01:58;;;;;;;5.65;3.28;;;7.40;95.50;;;;;;4994480;28;20034;-50
2021/04/10 00:04:24;;;;;;;7.90;3.33;;;7.50;96.20;;;;;;4978073;28;20042;-53
2021/04/10 00:06:50;;;;;;;5.07;2.67;;;7.70;93.80;;;;;;4978088;28;20053;-50
2021/04/10 00:09:16;;;;;;;5.07;2.92;;;7.80;91.90;;;;;;4994137;28;20664;-53
2021/04/10 00:11:42;;;;;;;6.97;3.17;;;7.80;89.00;;;;;;4994076;28;20030;-52
2021/04/10 00:14:12;;;;;;;5.72;3.35;;;8.00;88.40;;;;;;4994108;28;20042;-52
2021/04/10 00:16:37;;;;;;;7.72;3.05;;;8.10;87.70;;;;;;4994154;28;20046;-52
2021/04/10 00:19:03;;;;;;;6.85;3.72;;;8.10;87.20;;;;;;4969523;28;21010;-55
2021/04/10 00:21:30;;;;;;;7.03;3.95;;;8.40;87.00;;;;;;5055310;28;20094;-53
2021/04/10 00:23:55;;;;;;;9.25;4.88;;;8.50;85.50;;;;;;5055512;28;20053;-51
2021/04/10 00:26:22;;;;;;;9.68;4.57;;;8.70;85.10;;;;;;5055207;28;20083;-53
2021/04/10 00:28:48;;;;;;;11.70;5.30;;;8.80;84.50;;;;;;5055207;28;20468;-53
2021/04/10 00:31:14;;;;;;;6.80;3.92;;;8.90;82.60;;;;;;5055192;28;20111;-54
2021/04/10 00:33:41;;;;;;;5.32;3.05;;;8.90;82.80;;;;;;5055869;28;20037;-53
2021/04/10 00:36:09;;;;;;;6.80;2.92;;;8.90;82.90;;;;;;5055121;28;20483;-50
2021/04/10 00:38:36;;;;;;;6.28;3.13;;;8.70;83.30;;;;;;5054878;28;20554;-51
2021/04/10 00:41:04;;;;;;;5.40;3.10;;;8.50;84.30;;;;;;5055040;28;20039;-53
2021/04/10 00:43:29;;;;;;;7.63;4.00;;;8.20;87.40;;;;;;5054996;28;20029;-52
2021/04/10 00:45:55;;;;;;;6.53;3.33;;;7.70;90.70;;;;;;5054943;28;20074;-52
2021/04/10 00:48:22;;;;;;;7.03;3.42;;;7.20;90.60;;;;;;5055143;28;20033;-51
2021/04/10 00:50:49;;;;;;;7.20;3.78;;;7.20;95.20;;;;;;5054868;28;20417;-49
2021/04/10 00:53:16;;;;;;;4.97;3.22;;;;;;;;;;5055644;28;20103;-52
2021/04/10 00:55:46;;;;;;;5.25;3.03;;;6.70;99.90;;;;;;5060667;28;20040;-59
2021/04/10 00:58:12;;;;;;;6.07;3.20;;;6.80;98.90;;;;;;5059582;28;20100;-52
2021/04/10 01:00:39;;;;;;;7.43;3.22;;;7.00;99.50;;;;;;5054489;28;20052;-52
2021/04/10 01:03:05;;;;;;;8.60;3.13;;;7.00;99.30;;;;;;5054589;28;20036;-50
2021/04/10 01:05:31;;;;;;;4.22;2.63;;;;;;;;;;5054567;28;20426;-53
2021/04/10 01:07:57;;;;;;;5.55;2.97;;;7.30;99.90;;;;;;5054411;28;20090;-51
2021/04/10 01:10:23;;;;;;;10.18;3.72;;;7.60;94.10;;;;;;5019721;28;20045;-50
2021/04/10 01:13:07;;;;;;;12.00;4.22;;;7.70;95.00;;;;;;5054290;28;20384;-53
2021/04/10 01:15:40;;;;;;;8.15;4.20;;;7.90;91.60;;;;;;5054175;28;20067;-50
2021/04/10 01:18:13;;;;;;;10.75;5.63;;;8.20;91.30;;;;;;5054408;28;20021;-54
2021/04/10 01:20:47;;;;;;;11.05;5.57;;;8.30;90.80;;;;;;5054201;28;20468;-54
2021/04/10 01:23:36;;;;;;;8.57;4.93;;;8.30;90.10;;;;;;5053653;28;20024;-52
2021/04/10 01:26:12;;;;;;;5.93;3.05;;;8.50;87.60;;;;;;5053816;28;20056;-50
2021/04/10 01:28:56;;;;;;;6.25;3.00;;;8.30;87.20;;;;;;5053991;28;20067;-54
2021/04/10 01:31:28;;;;;;;7.05;3.05;;;8.20;90.40;;;;;;5054021;28;20121;-51
2021/04/10 01:34:00;;;;;;;5.28;2.92;;;8.10;88.20;;;;;;5053898;28;20468;-52
2021/04/10 01:36:29;;;;;;;6.47;2.87;;;8.20;86.30;;;;;;5050864;28;20111;-54
2021/04/10 01:38:56;;;;;;;6.60;3.15;;;;;;;;;;5053945;28;20106;-51
2021/04/10 01:41:23;;;;;;;5.10;2.50;;;8.60;90.70;;;;;;5053773;28;20037;-53
2021/04/10 01:43:51;;;;;;;5.75;2.80;;;8.60;89.20;;;;;;5053644;28;20510;-52
2021/04/10 01:46:19;;;;;;;5.18;2.75;;;8.60;85.20;;;;;;5053818;28;20044;-52
2021/04/10 01:48:46;;;;;;;3.03;1.88;;;8.70;85.20;;;;;;5053605;28;20036;-52
2021/04/10 01:51:14;;;;;;;4.65;2.20;;;8.80;84.50;;;;;;5053813;28;20392;-49
2021/04/10 01:53:40;;;;;;;6.13;2.13;;;;;;;;;;5053712;28;20100;-55
2021/04/10 01:56:07;;;;;;;5.82;2.03;;;9.00;83.20;;;;;;5053803;28;20021;-50
2021/04/10 01:58:36;;;;;;;4.18;2.17;;;9.00;83.70;;;;;;5019057;28;20032;-51
2021/04/10 02:01:02;;;;;;;3.85;2.05;;;9.10;82.90;;;;;;5053564;28;20060;-49
2021/04/10 02:03:30;;;;;;;3.03;1.80;;;9.20;83.20;;;;;;5053543;28;20028;-50
2021/04/10 02:05:56;;;;;;;7.03;2.03;;;9.20;82.00;;;;;;5053615;28;20025;-51
2021/04/10 02:08:25;;;;;;;4.65;1.98;;;9.30;83.00;;;;;;5050129;28;20037;-51
2021/04/10 02:10:52;;;;;;;4.82;1.65;;;;;;;;;;5053254;28;20108;-51
2021/04/10 02:13:18;;;;;;;2.22;1.60;;;9.30;97.50;;;;;;5053287;28;20025;-49
2021/04/10 02:15:44;;;;;;;3.50;2.00;;;9.60;95.10;;;;;;5053267;28;20040;-53
2021/04/10 02:18:10;;;;;;;3.05;1.63;;;9.60;95.50;;;;;;5053867;28;20021;-51
2021/04/10 02:20:36;;;;;;;2.70;1.77;;;9.50;98.40;;;;;;5053475;28;20163;-53
2021/04/10 02:23:03;;;;;;;5.65;2.47;;;9.60;99.90;;;;;;5035225;28;20068;-50
2021/04/10 02:25:29;;;;;;;4.20;1.98;;;9.60;99.70;;;;;;5053047;28;20142;-50
2021/04/10 02:27:56;;;;;;;4.18;1.83;;;9.50;96.00;;;;;;5053010;28;20044;-54
2021/04/10 02:30:23;;;;;;;3.35;1.67;;;9.60;95.80;;;;;;5053209;28;20087;-52
2021/04/10 02:32:53;;;;;;;4.60;2.20;;;9.60;98.60;;;;;;5053283;28;20025;-51
2021/04/10 02:35:25;;;;;;;3.13;2.15;;;9.50;98.90;;;;;;5037757;28;20063;-54
2021/04/10 02:37:52;;;;;;;3.40;1.63;;;9.50;98.50;;;;;;5057166;28;20037;-53
2021/04/10 02:40:20;;;;;;;2.20;1.35;;;9.40;97.90;;;;;;5057208;28;20048;-50
2021/04/10 02:42:47;;;;;;;5.55;1.95;;;9.40;97.60;;;;;;5057288;28;20033;-50
2021/04/10 02:45:20;;;;;;;8.18;1.75;;;9.50;97.20;;;;;;5057045;28;20476;-50
2021/04/10 02:47:49;;;;;;;1.88;1.25;;;9.50;96.70;;;;;;5023710;28;20048;-53
2021/04/10 02:50:17;;;;;;;3.42;1.70;;;;;;;;;;5038883;28;20073;-49
2021/04/10 02:52:47;;;;;;;3.35;1.63;;;9.60;96.50;;;;;;5057206;28;20376;-50
2021/04/10 02:55:18;;;;;;;6.65;1.83;;;8.90;81.90;;;;;;5056972;28;20120;-52
2021/04/10 02:57:45;;;;;;;2.87;1.43;;;8.30;85.70;;;;;;5056950;28;20674;-52
2021/04/10 03:00:12;;;;;;;1.92;1.27;;;7.60;88.80;;;;;;5056932;28;20384;-50
2021/04/10 03:02:40;;;;;;;1.77;1.10;;;7.20;90.20;;;;;;5039038;28;20418;-51
2021/04/10 03:05:08;;;;;;;2.95;1.23;;;6.90;90.70;;;;;;5057016;28;20479;-52
2021/04/10 03:07:34;;;;;;;2.53;1.70;;;6.70;91.50;;;;;;4973209;28;20044;-54
2021/04/10 03:10:01;;;;;;;4.10;1.83;;;6.60;92.30;;;;;;5056638;28;20040;-51
2021/04/10 03:12:27;;;;;;;2.80;1.50;;;6.80;93.40;;;;;;5056793;28;20035;-54
2021/04/10 03:14:53;;;;;;;2.15;1.30;;;;;;;;;;5056552;28;20384;-50
2021/04/10 03:17:24;;;;;;;2.15;1.25;;;6.80;99.90;;;;;;5056481;28;20048;-50
2021/04/10 03:19:50;;;;;;;2.53;1.38;;;6.70;99.90;;;;;;5056544;28;20384;-48
2021/04/10 03:22:16;;;;;;;4.28;1.60;;;6.60;99.90;;;;;;5056507;28;20086;-52
2021/04/10 03:24:43;;;;;;;2.85;1.55;;;;;;;;;;5056190;28;20036;-52
2021/04/10 03:27:10;;;;;;;3.38;2.00;;;;;;;;;;5056233;28;20476;-51
2021/04/10 03:29:38;;;;;;;2.67;1.98;;;6.00;93.60;;;;;;5056185;28;20447;-54
2021/04/10 03:32:08;;;;;;;3.08;1.80;;;6.00;94.20;;;;;;5056440;28;20025;-53
2021/04/10 03:34:35;;;;;;;3.03;1.60;;;6.00;94.10;;;;;;5005750;28;20468;-52
2021/04/10 03:37:02;;;;;;;3.47;2.00;;;6.00;94.40;;;;;;5056290;28;20024;-51
2021/04/10 03:39:29;;;;;;;4.70;2.33;;;6.00;94.80;;;;;;5056155;28;20392;-53
2021/04/10 03:41:56;;;;;;;4.35;2.38;;;6.00;94.90;;;;;;5055889;28;20368;-51
2021/04/10 03:44:22;;;;;;;4.38;2.83;;;6.10;94.50;;;;;;5037596;28;20112;-51
2021/04/10 03:46:49;;;;;;;6.47;2.72;;;6.00;94.80;;;;;;5055548;28;20029;-52
2021/04/10 03:49:14;;;;;;;5.97;2.42;;;6.00;94.70;;;;;;5021383;28;20060;-50
2021/04/10 03:51:40;;;;;;;6.43;2.67;;;;;;;;;;5021058;28;20068;-53
2021/04/10 03:54:06;;;;;;;4.78;1.83;;;5.90;95.10;;;;;;5056093;28;20029;-52
2021/04/10 03:56:32;;;;;;;4.32;2.03;;;;;;;;;;5055791;28;20078;-51
2021/04/10 03:58:59;;;;;;;3.33;1.70;;;5.90;99.90;;;;;;5021069;28;20041;-50
2021/04/10 04:01:24;;;;;;;3.35;2.30;;;6.00;95.50;;;;;;5055762;28;20034;-53
2021/04/10 04:03:50;;;;;;;3.35;2.00;;;6.00;95.50;;;;;;5055482;28;20162;-54
2021/04/10 04:06:16;;;;;;;4.30;2.53;;;6.10;95.60;;;;;;5037137;28;20108;-54
2021/04/10 04:08:41;;;;;;;3.33;2.35;;;6.10;95.10;;;;;;5037230;28;20036;-52
2021/04/10 04:11:07;;;;;;;4.97;2.47;;;6.10;95.20;;;;;;5055510;28;20472;-53
2021/04/10 04:13:33;;;;;;;4.03;1.80;;;6.10;95.10;;;;;;5055348;28;20082;-52
2021/04/10 04:15:59;;;;;;;4.43;2.50;;;6.10;95.30;;;;;;5055113;28;20028;-56
2021/04/10 04:18:24;;;;;;;3.40;1.65;;;6.10;95.20;;;;;;5055452;28;20027;-52
2021/04/10 04:20:50;;;;;;;3.58;2.08;;;6.00;95.20;;;;;;5055671;28;20060;-52
2021/04/10 04:23:16;;;;;;;2.50;1.67;;;6.10;95.00;;;;;;5003965;28;20041;-53
2021/04/10 04:25:42;;;;;;;4.28;1.88;;;6.00;95.20;;;;;;5020130;28;20098;-55
2021/04/10 04:28:07;;;;;;;4.10;1.95;;;5.80;95.40;;;;;;5055145;28;20040;-52
2021/04/10 04:30:33;;;;;;;3.30;1.52;;;5.80;95.80;;;;;;5020367;28;20442;-52
2021/04/10 04:32:59;;;;;;;2.90;1.63;;;;;;;;;;4971595;28;20044;-53
2021/04/10 04:35:25;;;;;;;2.50;1.63;;;;;;;;;;5055055;28;20029;-52
2021/04/10 04:37:51;;;;;;;2.85;1.42;;;5.90;99.90;;;;;;5054330;28;20032;-56
2021/04/10 04:40:17;;;;;;;4.70;2.10;;;5.90;99.90;;;;;;5053873;28;20036;-55
2021/04/10 04:42:43;;;;;;;3.13;2.40;;;5.80;96.40;;;;;;5054527;28;20059;-53
2021/04/10 04:45:09;;;;;;;3.35;2.05;;;5.80;96.50;;;;;;5055023;28;20491;-50
2021/04/10 04:47:35;;;;;;;5.18;1.98;;;;;;;;;;5054684;28;20380;-51
2021/04/10 04:50:01;;;;;;;3.75;2.20;;;;;;;;;;5054801;28;20400;-50
2021/04/10 04:52:31;;;;;;;3.97;2.45;;;6.30;99.90;;;;;;5054907;28;20028;-50
2021/04/10 04:54:57;;;;;;;4.10;2.67;;;6.30;99.90;;;;;;5052991;28;20441;-50
2021/04/10 04:57:23;;;;;;;5.80;3.55;;;;;;;;;;5054287;28;20112;-50
2021/04/10 04:59:49;;;;;;;6.28;3.47;;;6.30;97.20;;;;;;5054531;28;20157;-51
2021/04/10 05:02:16;;;;;;;6.63;3.83;;;6.00;98.10;;;;;;5054704;28;20380;-50
2021/04/10 05:04:42;;;;;;;4.20;2.60;;;6.10;98.40;;;;;;5036202;28;20029;-51
2021/04/10 05:07:07;;;;;;;5.53;2.75;;;6.20;98.60;;;;;;5054428;28;20028;-51
2021/04/10 05:09:34;;;;;;;6.82;3.35;;;;;;;;;;5054546;28;20347;-51
2021/04/10 05:12:00;;;;;;;19.92;8.48;;;;;;;;;;5054334;28;20032;-51
2021/04/10 05:14:26;;;;;;;10.05;5.93;;;;;;;;;;5053975;28;20032;-50
2021/04/10 05:16:52;;;;;;;7.55;5.50;;;6.90;96.50;;;;;;5054239;28;20029;-51
2021/04/10 05:19:17;;;;;;;8.13;6.85;;;7.10;95.70;;;;;;5054329;28;20108;-51
2021/04/10 05:21:43;;;;;;;7.60;4.80;;;;;;;;;;5019146;28;20079;-51
2021/04/10 05:24:10;;;;;;;3.33;2.05;;;;;;;;;;5054642;28;20082;-52
2021/04/10 05:26:36;;;;;;;3.40;2.33;;;;;;;;;;5053991;28;20145;-52
2021/04/10 05:29:02;;;;;;;6.53;3.05;;;8.20;99.90;;;;;;5054172;28;20033;-52
2021/04/10 05:31:30;;;;;;;3.22;2.22;;;7.90;96.80;;;;;;5054143;28;20429;-52
2021/04/10 05:33:56;;;;;;;5.35;1.98;;;8.00;97.10;;;;;;5052698;28;20048;-52
2021/04/10 05:36:22;;;;;;;3.22;2.22;;;8.30;99.90;;;;;;5054292;28;20382;-53
2021/04/10 05:38:48;;;;;;;3.42;2.30;;;8.40;98.40;;;;;;5054229;28;20033;-50
2021/04/10 05:41:13;;;;;;;6.30;2.63;;;8.50;98.10;;;;;;5053967;28;20059;-50
2021/04/10 05:43:39;;;;;;;21.75;7.45;;;8.60;97.70;;;;;;5035679;28;20044;-50
2021/04/10 05:46:06;;;;;;;51.97;18.67;;;8.60;97.70;;;;;;5053785;28;20494;-51
2021/04/10 05:48:32;;;;;;;39.50;15.10;;;8.60;98.20;;;;;;5053778;28;20408;-51
2021/04/10 05:50:58;;;;;;;15.07;5.00;;;8.70;99.90;;;;;;5053966;28;20029;-51
2021/04/10 05:53:26;;;;;;;8.50;4.75;;;9.00;99.90;;;;;;5035414;28;20615;-51
2021/04/10 05:55:53;;;;;;;8.30;5.65;;;9.00;99.90;;;;;;5034826;28;20190;-50
2021/04/10 05:58:19;;;;;;;4.93;3.35;;;;;;;;;;5053728;28;20103;-50
2021/04/10 06:00:44;;;;;;;7.25;4.22;;;9.60;99.90;;;;;;5052383;28;20043;-52
2021/04/10 06:03:10;;;;;;;6.28;3.00;;;9.50;99.30;;;;;;5053479;28;20055;-50
2021/04/10 06:05:36;;;;;;;5.00;3.17;;;;;;;;;;5035377;28;20029;-51
2021/04/10 06:08:02;;;;;;;6.63;2.67;;;10.00;97.90;;;;;;5053404;28;20141;-51
2021/04/10 06:10:28;;;;;;;5.95;2.20;;;;;;;;;;5053567;28;20032;-50
2021/04/10 06:12:54;;;;;;;5.63;2.55;;;10.50;97.40;;;;;;5053570;28;20376;-50
2021/04/10 06:15:20;;;;;;;3.85;2.13;;;10.60;96.60;;;;;;5051769;28;20041;-52
2021/04/10 06:17:47;;;;;;;3.53;1.98;;;;;;;;;;5035014;28;20042;-51
2021/04/10 06:20:14;;;;;;;3.33;1.88;;;;;;;;;;5051796;28;20037;-50
2021/04/10 06:22:40;;;;;;;3.08;1.60;;;11.40;94.50;;;;;;5051564;28;20044;-51
2021/04/10 06:25:07;;;;;;;3.42;2.15;;;11.60;93.90;;;;;;5053136;28;20025;-52
2021/04/10 06:27:36;;;;;;;3.75;1.50;;;11.60;92.20;;;;;;5053016;28;20048;-52
2021/04/10 06:30:04;;;;;;;2.83;1.80;;;11.70;93.00;;;;;;5053179;28;20564;-52
2021/04/10 06:32:30;;;;;;;3.17;1.83;;;11.90;93.30;;;;;;5035335;28;20037;-51
2021/04/10 06:34:56;;;;;;;3.38;1.77;;;;;;;;;;5035014;28;20041;-51
2021/04/10 06:37:22;;;;;;;7.28;5.72;;;12.40;91.40;;;;;;5002057;28;20062;-51
2021/04/10 06:39:47;;;;;;;9.25;4.90;;;12.60;92.10;;;;;;5053185;28;20404;-52
2021/04/10 06:42:13;;;;;;;8.63;7.65;;;12.60;89.90;;;;;;5051480;28;20040;-50
2021/04/10 06:44:39;;;;;;;6.00;4.55;;;12.60;90.00;;;;;;5053193;28;20029;-51
2021/04/10 06:47:06;;;;;;;5.80;2.50;;;;;;;;;;5053601;28;20112;-52
2021/04/10 06:49:32;;;;;;;3.78;2.20;;;12.90;89.60;;;;;;5053327;28;20392;-49
2021/04/10 06:52:01;;;;;;;4.03;2.17;;;13.10;88.60;;;;;;5033969;28;20052;-51
2021/04/10 06:54:31;;;;;;;3.67;1.70;;;13.30;88.60;;;;;;5017979;28;20425;-55
2021/04/10 06:57:04;;;;;;;1.92;1.63;;;13.50;86.50;;;;;;5034824;28;20037;-50
2021/04/10 06:59:44;;;;;;;3.15;1.50;;;13.60;87.50;;;;;;5053332;28;20033;-53
2021/04/10 07:02:11;;;;;;;2.50;1.52;;;;;;;;;;5052933;28;20104;-52
2021/04/10 07:04:40;;;;;;;2.95;1.60;;;13.90;86.00;;;;;;5053052;28;20025;-50
2021/04/10 07:07:06;;;;;;;4.97;2.35;;;14.10;86.10;;;;;;5052911;28;20033;-50
2021/04/10 07:09:37;;;;;;;3.08;1.52;;;14.40;98.30;;;;;;5034404;28;20110;-49
2021/04/10 07:12:07;;;;;;;1.20;1.00;;;14.60;84.40;;;;;;5034353;28;20115;-50
2021/04/10 07:14:34;;;;;;;2.55;1.10;;;;;;;;;;4985595;28;20045;-51
2021/04/10 07:17:00;;;;;;;7.72;1.70;;;15.00;77.90;;;;;;5052863;28;20063;-52
2021/04/10 07:19:27;;;;;;;1.25;0.98;;;14.90;77.20;;;;;;5034332;28;20034;-48
2021/04/10 07:22:09;;;;;;;7.78;1.70;;;15.00;77.20;;;;;;5056179;28;20032;-49
2021/04/10 07:24:36;;;;;;;1.95;1.20;;;;;;;;;;5056009;28;20036;-50
2021/04/10 07:27:03;;;;;;;2.08;1.42;;;15.40;74.40;;;;;;5056091;28;20048;-50
2021/04/10 07:29:37;;;;;;;2.40;1.10;;;15.60;77.10;;;;;;5056208;28;20032;-50
2021/04/10 07:32:24;;;;;;;2.38;1.08;;;15.90;75.80;;;;;;5056276;28;20484;-52
2021/04/10 07:34:51;;;;;;;2.95;0.90;;;16.30;92.10;;;;;;5054379;28;20029;-50
2021/04/10 07:37:35;;;;;;;3.78;1.15;;;16.40;72.40;;;;;;5056168;28;20100;-49
2021/04/10 07:40:24;;;;;;;3.75;1.42;;;16.70;71.70;;;;;;5054484;28;20037;-49
2021/04/10 07:42:51;;;;;;;1.50;0.98;;;;;;;;;;5034140;28;20042;-52
2021/04/10 07:45:32;;;;;;;1.85;1.45;;;17.10;66.80;;;;;;5033898;28;20136;-51
2021/04/10 07:48:01;;;;;;;1.63;0.87;;;17.30;67.20;;;;;;5001231;28;20140;-51
2021/04/10 07:50:27;;;;;;;2.83;1.50;;;17.50;65.80;;;;;;5033936;28;20025;-52
2021/04/10 07:52:54;;;;;;;3.55;1.60;;;17.50;62.30;;;;;;5033831;28;20029;-52
2021/04/10 07:55:45;;;;;;;1.77;0.88;;;17.40;65.60;;;;;;5033761;28;20029;-49
2021/04/10 07:58:27;;;;;;;1.58;0.75;;;;;;;;;;5033870;28;20551;-52
2021/04/10 08:00:55;;;;;;;1.92;0.93;;;;;;;;;;5033695;28;20065;-50
2021/04/10 08:03:47;;;;;;;1.52;0.80;;;18.10;60.70;;;;;;5030974;28;20540;-52
2021/04/10 08:06:15;;;;;;;1.58;0.90;;;18.40;62.00;;;;;;5033831;28;20065;-51
2021/04/10 08:08:57;;;;;;;3.08;1.00;;;18.40;61.30;;;;;;5017366;28;20037;-52
2021/04/10 08:11:36;;;;;;;1.45;0.90;;;18.70;63.20;;;;;;5033846;28;20036;-51
2021/04/10 08:14:06;;;;;;;2.65;1.33;;;;;;;;;;5033691;28;20516;-52
2021/04/10 08:16:32;;;;;;;2.38;0.90;;;;;;;;;;5033534;28;20080;-51
2021/04/10 08:18:59;;;;;;;3.38;1.00;;;;;;;;;;4971816;28;20051;-49
2021/04/10 08:21:31;;;;;;;3.03;0.93;;;19.00;93.70;;;;;;5055352;28;20083;-51
2021/04/10 08:23:57;;;;;;;0.60;0.60;;;;;;;;;;5053727;28;20390;-49
2021/04/10 08:26:24;;;;;;;2.67;1.20;;;19.20;83.50;;;;;;5055034;28;20452;-47
2021/04/10 08:28:50;;;;;;;4.68;0.90;;;;;;;;;;5055388;28;20040;-47
2021/04/10 08:31:17;;;;;;;1.92;1.08;;;20.00;93.60;;;;;;5037626;28;20029;-49
2021/04/10 08:33:43;;;;;;;2.47;1.13;;;;;;;;;;5055185;28;20031;-51
2021/04/10 08:36:10;;;;;;;3.35;1.45;;;20.20;57.50;;;;;;5055420;28;20464;-51
2021/04/10 08:38:39;;;;;;;1.40;1.00;;;20.30;57.50;;;;;;5055211;28;20032;-52
2021/04/10 08:41:07;;;;;;;2.47;1.20;;;20.10;57.10;;;;;;5055349;28;20432;-48
2021/04/10 08:43:36;;;;;;;0.63;0.60;;;19.50;57.10;;;;;;5053672;28;20061;-50
2021/04/10 08:46:04;;;;;;;1.75;1.00;;;19.70;58.50;;;;;;5053585;28;20035;-53
2021/04/10 08:48:31;;;;;;;1.40;0.98;;;19.80;59.00;;;;;;5055085;28;20116;-49
2021/04/10 08:51:01;;;;;;;2.83;1.00;;;19.90;56.60;;;;;;5055098;28;20100;-49
2021/04/10 08:53:31;;;;;;;1.95;1.10;;;20.30;56.40;;;;;;5053619;28;20573;-51
2021/04/10 08:55:57;;;;;;;3.17;1.25;;;20.70;55.00;;;;;;5054981;28;20047;-51
2021/04/10 08:58:31;;;;;;;5.00;1.25;;;20.90;54.90;;;;;;5054609;28;20025;-48
2021/04/10 09:01:02;;;;;;;2.30;1.33;;;20.60;54.90;;;;;;5054686;28;20496;-50
2021/04/10 09:03:48;;;;;;;3.90;1.00;;;19.90;54.60;;;;;;5053223;28;20043;-51
2021/04/10 09:06:16;;;;;;;2.33;0.90;;;20.40;55.90;;;;;;5054282;28;20044;-50
2021/04/10 09:08:42;;;;;;;1.13;1.02;;;21.20;70.30;;;;;;5054492;28;20037;-48
2021/04/10 09:11:17;;;;;;;2.10;1.27;;;21.30;53.20;;;;;;5053959;28;20421;-48
2021/04/10 09:13:53;;;;;;;3.22;0.95;;;21.00;53.60;;;;;;5054396;28;20017;-50
2021/04/10 09:16:39;;;;;;;1.95;1.17;;;20.70;54.40;;;;;;5054599;28;20029;-50
2021/04/10 09:19:06;;;;;;;1.92;0.90;;;;;;;;;;5054608;28;20115;-50
2021/04/10 09:21:37;;;;;;;1.17;0.80;;;21.70;65.30;;;;;;5054334;28;20487;-48
2021/04/10 09:24:18;;;;;;;2.35;1.05;;;;;;;;;;5054071;28;20025;-48
2021/04/10 09:26:56;;;;;;;2.95;1.40;;;22.20;53.70;;;;;;5054234;28;20049;-49
2021/04/10 09:29:22;;;;;;;2.13;1.00;;;22.30;52.90;;;;;;5054014;28;20017;-52
2021/04/10 09:31:54;;;;;;;3.33;1.23;;;22.30;52.60;;;;;;5054294;28;20029;-50
2021/04/10 09:34:53;;;;;;;2.75;1.27;;;22.30;55.30;;;;;;5052331;28;20098;-49
2021/04/10 09:37:21;;;;;;;1.65;1.00;;;22.30;53.30;;;;;;5054032;28;20029;-51
2021/04/10 09:39:56;;;;;;;1.65;0.80;;;22.70;51.30;;;;;;5052613;28;20463;-50
2021/04/10 09:43:02;;;;;;;1.35;0.98;;;21.70;50.60;;;;;;5053785;28;20473;-51
2021/04/10 09:45:33;;;;;;;1.33;0.90;;;21.60;51.80;;;;;;5031684;28;20046;-50
2021/04/10 09:48:00;;;;;;;1.88;1.02;;;20.90;51.60;;;;;;5031525;28;20512;-49
2021/04/10 09:50:27;;;;;;;1.40;1.30;;;21.60;52.10;;;;;;5031951;28;20451;-51
2021/04/10 09:52:54;;;;;;;1.77;0.90;;;21.00;50.90;;;;;;5031657;28;20113;-51
2021/04/10 09:55:21;;;;;;;1.63;1.30;;;21.50;52.00;;;;;;5032033;28;20033;-52
2021/04/10 09:58:00;;;;;;;1.95;1.00;;;21.60;51.90;;;;;;5031013;28;20385;-48
2021/04/10 10:00:27;;;;;;;1.92;1.08;;;21.60;51.80;;;;;;5031895;28;20036;-50
2021/04/10 10:02:54;;;;;;;1.73;1.00;;;22.10;52.50;;;;;;5031685;28;20091;-51
2021/04/10 10:05:24;;;;;;;1.17;0.77;;;21.30;52.30;;;;;;5031775;28;20113;-51
2021/04/10 10:07:53;;;;;;;1.63;1.13;;;20.70;52.60;;;;;;5031937;28;20099;-51
2021/04/10 10:10:19;;;;;;;2.15;1.23;;;20.30;52.10;;;;;;5031907;28;20429;-52
2021/04/10 10:12:45;;;;;;;1.65;1.10;;;20.60;51.60;;;;;;4995160;28;20037;-52
2021/04/10 10:15:25;;;;;;;2.08;1.23;;;20.10;51.70;;;;;;5031043;28;20384;-48
2021/04/10 10:17:51;;;;;;;1.00;0.85;;;21.30;52.50;;;;;;5031076;28;20453;-50
2021/04/10 10:20:17;;;;;;;1.27;1.00;;;21.00;52.00;;;;;;5030767;28;20029;-51
2021/04/10 10:22:43;;;;;;;1.48;1.10;;;22.10;52.50;;;;;;5051814;28;20045;-50
2021/04/10 10:25:11;;;;;;;1.70;1.02;;;22.00;52.10;;;;;;5053245;28;20036;-52
2021/04/10 10:27:45;;;;;;;2.65;1.08;;;21.60;51.60;;;;;;5001056;28;20048;-49
2021/04/10 10:30:16;;;;;;;5.10;1.40;;;20.60;52.30;;;;;;5053203;28;20395;-52
2021/04/10 10:32:44;;;;;;;2.13;1.20;;;20.80;53.00;;;;;;5011011;28;20042;-49
2021/04/10 10:35:11;;;;;;;2.25;1.33;;;21.40;51.30;;;;;;5010849;28;20437;-51
2021/04/10 10:37:37;;;;;;;2.30;0.85;;;21.70;51.90;;;;;;4977793;28;20648;-50
2021/04/10 10:40:04;;;;;;;5.05;0.90;;;22.20;50.70;;;;;;5011249;28;20485;-51
2021/04/10 10:42:30;;;;;;;0.77;0.70;;;23.10;51.50;;;;;;4994201;28;20062;-48
2021/04/10 10:44:56;;;;;;;2.72;1.25;;;23.50;49.40;;;;;;5011224;28;20040;-52
2021/04/10 10:47:25;;;;;;;1.10;0.90;;;23.90;49.60;;;;;;5011128;28;20502;-48
2021/04/10 10:49:52;;;;;;;2.97;1.88;;;24.30;50.60;;;;;;5010687;28;20042;-50
2021/04/10 10:52:18;;;;;;;1.67;0.95;;;24.70;51.00;;;;;;4994513;28;20038;-50
2021/04/10 10:54:46;;;;;;;1.45;0.93;;;;;;;;;;4994524;28;20061;-49
2021/04/10 10:57:14;;;;;;;1.05;0.95;;;;;;;;;;5014593;28;20041;-50
2021/04/10 10:59:40;;;;;;;3.60;0.98;;;25.00;46.90;;;;;;4982111;28;20042;-51
2021/04/10 11:02:10;;;;;;;1.63;1.17;;;;;;;;;;5014826;28;20481;-49
2021/04/10 11:04:37;;;;;;;2.15;0.93;;;25.00;47.40;;;;;;5015801;28;20391;-53
2021/04/10 11:07:06;;;;;;;1.27;0.90;;;24.60;51.80;;;;;;5056693;28;20045;-50
2021/04/10 11:09:37;;;;;;;3.50;0.70;;;23.80;48.60;;;;;;5056657;28;20040;-48
2021/04/10 11:12:10;;;;;;;2.13;0.88;;;23.60;48.20;;;;;;5056651;28;20037;-51
2021/04/10 11:14:42;;;;;;;1.80;1.20;;;23.70;48.40;;;;;;5021447;28;20045;-51
2021/04/10 11:17:09;;;;;;;1.10;0.82;;;23.50;49.20;;;;;;5038650;28;20037;-51
2021/04/10 11:19:36;;;;;;;2.33;0.95;;;23.10;48.10;;;;;;5037530;28;20073;-49
2021/04/10 11:22:08;;;;;;;1.38;0.90;;;23.20;48.50;;;;;;5056446;28;20036;-50
2021/04/10 11:24:39;;;;;;;0.65;0.65;;;23.30;49.00;;;;;;5056454;28;20041;-51
2021/04/10 11:27:19;;;;;;;1.23;0.90;;;21.70;49.40;;;;;;5056105;28;20504;-51
2021/04/10 11:30:00;;;;;;;7.72;1.55;;;21.80;50.00;;;;;;5056300;28;20753;-49
2021/04/10 11:32:44;;;;;;;1.55;0.82;;;21.00;65.60;;;;;;5055556;28;20025;-51
2021/04/10 11:35:18;;;;;;;0.98;0.80;;;21.10;64.80;;;;;;5055398;28;20431;-49
2021/04/10 11:37:56;;;;;;;3.47;1.40;;;22.00;56.90;;;;;;5055774;28;20029;-52
2021/04/10 11:40:30;;;;;;;1.52;1.02;;;22.60;65.80;;;;;;5056129;28;20029;-51
2021/04/10 11:43:01;;;;;;;2.25;1.40;;;22.10;50.00;;;;;;5055730;28;20094;-53
2021/04/10 11:45:31;;;;;;;1.77;1.55;;;22.90;59.60;;;;;;5054653;28;20040;-50
2021/04/10 11:48:23;;;;;;;1.65;0.95;;;22.30;49.40;;;;;;5034419;28;20484;-49
2021/04/10 11:50:56;;;;;;;2.00;1.02;;;22.50;48.90;;;;;;5055462;28;20105;-49
2021/04/10 11:53:33;;;;;;;1.48;0.90;;;22.30;49.60;;;;;;5040102;28;20384;-52
2021/04/10 11:56:00;;;;;;;3.63;1.20;;;22.30;49.50;;;;;;5053408;28;20063;-53
2021/04/10 11:58:33;;;;;;;1.98;1.20;;;22.40;50.30;;;;;;5037032;28;20400;-52
2021/04/10 12:01:10;;;;;;;1.77;1.00;;;22.00;54.20;;;;;;5053795;28;20112;-51
2021/04/10 12:03:53;;;;;;;1.80;1.10;;;22.30;52.30;;;;;;5054630;28;20551;-54
2021/04/10 12:06:31;;;;;;;1.10;0.80;;;22.50;50.90;;;;;;5054515;28;20032;-51
2021/04/10 12:09:10;;;;;;;0.98;0.75;;;22.30;50.00;;;;;;5055365;28;20082;-52
2021/04/10 12:11:38;;;;;;;0.98;0.80;;;22.80;53.30;;;;;;5036138;28;20063;-49
2021/04/10 12:14:08;;;;;;;1.77;1.00;;;23.20;50.20;;;;;;5052163;28;20128;-52
2021/04/10 12:16:37;;;;;;;3.55;1.50;;;23.70;49.50;;;;;;5055091;28;20345;-51
2021/04/10 12:19:08;;;;;;;1.98;0.90;;;23.90;49.90;;;;;;5054315;28;20032;-50
2021/04/10 12:21:34;;;;;;;2.72;1.10;;;23.70;49.30;;;;;;5036750;28;20037;-51
2021/04/10 12:24:00;;;;;;;1.80;1.08;;;23.70;49.00;;;;;;5055420;28;20033;-52
2021/04/10 12:26:26;;;;;;;2.25;1.00;;;23.50;49.40;;;;;;5036076;28;20049;-50
2021/04/10 12:28:52;;;;;;;1.23;0.63;;;23.40;49.50;;;;;;5055146;28;20242;-53
2021/04/10 12:31:18;;;;;;;1.30;0.80;;;22.70;48.60;;;;;;5055384;28;20025;-49
2021/04/10 12:33:44;;;;;;;1.20;0.90;;;22.30;50.10;;;;;;5054854;28;20033;-54
2021/04/10 12:36:12;;;;;;;4.25;1.10;;;22.40;49.60;;;;;;5055123;28;20037;-51
2021/04/10 12:38:37;;;;;;;2.17;1.00;;;22.70;49.60;;;;;;5055071;28;20017;-52
2021/04/10 12:41:05;;;;;;;1.23;1.02;;;22.70;51.10;;;;;;5054924;28;20033;-53
2021/04/10 12:43:31;;;;;;;3.72;0.98;;;22.60;50.60;;;;;;5054726;28;20029;-51
2021/04/10 12:45:57;;;;;;;1.20;1.10;;;22.50;49.00;;;;;;5054839;28;20522;-48
2021/04/10 12:48:22;;;;;;;1.23;0.98;;;22.80;49.90;;;;;;5054570;28;20036;-52
2021/04/10 12:50:48;;;;;;;1.38;0.95;;;23.00;49.40;;;;;;5054857;28;20064;-52
2021/04/10 12:53:14;;;;;;;1.33;0.90;;;23.30;48.40;;;;;;5054149;28;20024;-52
2021/04/10 12:55:40;;;;;;;2.30;1.30;;;23.40;49.00;;;;;;5053677;28;20495;-51
2021/04/10 12:58:06;;;;;;;2.10;1.45;;;;;;;;;;5054873;28;20029;-51
2021/04/10 13:00:32;;;;;;;4.03;1.63;;;;;;;;;;5053877;28;20021;-52
2021/04/10 13:02:58;;;;;;;2.85;1.20;;;23.30;84.90;;;;;;5053461;28;20029;-53
2021/04/10 13:05:24;;;;;;;1.95;1.08;;;22.70;79.40;;;;;;5053894;28;20451;-48
2021/04/10 13:07:50;;;;;;;2.22;1.10;;;22.80;75.00;;;;;;5018408;28;20045;-53
2021/04/10 13:10:16;;;;;;;1.35;1.25;;;22.80;74.30;;;;;;5034785;28;20049;-52
2021/04/10 13:12:43;;;;;;;1.30;0.98;;;22.90;71.10;;;;;;5011559;28;20037;-51
2021/04/10 13:15:13;;;;;;;2.97;1.73;;;22.80;68.40;;;;;;5010566;28;20713;-52